Time;durP1;ratioP1;P1;durP2;ratioP2;P2;SDS_P1;SDS_P2;PMS_P1;PMS_P2;Temp;Humidity;BMP_temperature;BMP_pressure;BME280_temperature;BME280_humidity;BME280_pressure;Samples;Min_cycle;Max_cycle;Signal;HPM_P1;HPM_P2
2023/08/02 00:02:06;;;;;;;2.80;2.00;;;;;;;17.03;100.00;99335.72;5017329;28;20758;-75
2023/08/02 00:04:31;;;;;;;1.70;1.47;;;;;;;17.01;100.00;99335.81;5031247;28;20188;-76
2023/08/02 00:06:56;;;;;;;2.90;1.90;;;;;;;17.00;100.00;99330.63;5025269;28;20216;-75
2023/08/02 00:09:22;;;;;;;2.63;1.70;;;;;;;17.00;100.00;99326.28;5017193;28;20282;-76
2023/08/02 00:11:53;;;;;;;2.27;1.87;;;;;;;17.01;100.00;99316.66;5011715;28;20207;-75
2023/08/02 00:14:18;;;;;;;2.57;2.10;;;;;;;17.00;100.00;99304.50;5012105;28;20566;-76
2023/08/02 00:16:49;;;;;;;4.07;2.00;;;;;;;17.00;100.00;99307.09;5019828;28;20183;-76
2023/08/02 00:19:15;;;;;;;2.03;1.60;;;;;;;17.00;100.00;99299.28;5018064;28;20195;-74
2023/08/02 00:21:41;;;;;;;3.40;2.00;;;;;;;17.00;100.00;99294.03;5017133;28;20184;-75
2023/08/02 00:24:06;;;;;;;2.93;1.90;;;;;;;16.99;100.00;99289.75;5015202;28;20271;-75
2023/08/02 00:26:31;;;;;;;2.30;1.73;;;;;;;16.99;100.00;99292.34;5016311;28;20595;-75
2023/08/02 00:28:57;;;;;;;2.30;1.73;;;;;;;16.98;100.00;99283.69;5011959;28;20219;-74
2023/08/02 00:31:22;;;;;;;2.13;1.70;;;;;;;16.97;100.00;99275.91;5016088;28;20636;-74
2023/08/02 00:33:47;;;;;;;2.23;1.97;;;;;;;16.95;100.00;99260.31;5014342;28;20671;-76
2023/08/02 00:36:13;;;;;;;1.50;1.40;;;;;;;16.95;100.00;99257.69;5012494;28;20220;-75
2023/08/02 00:38:38;;;;;;;1.83;1.50;;;;;;;16.92;100.00;99256.06;5010665;28;20226;-75
2023/08/02 00:41:05;;;;;;;1.73;1.60;;;;;;;16.93;100.00;99259.50;5016246;28;20200;-75
2023/08/02 00:43:40;;;;;;;2.30;1.70;;;;;;;16.95;100.00;99264.69;5015144;28;20307;-75
2023/08/02 00:46:07;;;;;;;2.83;1.50;;;;;;;16.95;100.00;99264.69;5013715;28;20251;-75
2023/08/02 00:48:34;;;;;;;1.90;1.70;;;;;;;16.95;100.00;99276.00;5009913;28;20257;-75
2023/08/02 00:51:00;;;;;;;1.30;1.20;;;;;;;16.96;100.00;99269.84;5011447;28;20199;-76
2023/08/02 00:53:26;;;;;;;1.93;1.80;;;;;;;16.98;100.00;99273.22;5010988;28;20208;-76
2023/08/02 00:55:51;;;;;;;1.97;1.67;;;;;;;17.00;100.00;99260.06;5015998;28;20191;-76
2023/08/02 00:58:17;;;;;;;2.17;1.50;;;;;;;17.01;100.00;99264.38;5014142;28;20857;-76
2023/08/02 01:00:42;;;;;;;1.70;1.60;;;;;;;17.02;100.00;99258.22;5012927;28;20279;-76
2023/08/02 01:03:09;;;;;;;3.30;2.20;;;;;;;17.04;100.00;99253.75;5014361;28;20207;-76
2023/08/02 01:05:42;;;;;;;2.07;1.70;;;;;;;17.05;100.00;99255.44;5012284;28;20212;-76
2023/08/02 01:08:11;;;;;;;1.80;1.43;;;;;;;17.06;100.00;99247.53;5014381;28;22165;-75
2023/08/02 01:10:58;;;;;;;1.77;1.60;;;;;;;17.09;100.00;99245.66;5014038;28;20575;-75
2023/08/02 01:13:25;;;;;;;2.23;1.80;;;;;;;17.10;100.00;99247.38;5013118;28;20215;-75
2023/08/02 01:15:51;;;;;;;2.07;1.60;;;;;;;17.11;100.00;99243.81;5012647;28;20599;-74
2023/08/02 01:18:16;;;;;;;1.83;1.60;;;;;;;17.11;100.00;99238.59;5012493;28;20205;-75
2023/08/02 01:20:41;;;;;;;2.93;1.70;;;;;;;17.12;100.00;99238.50;5015716;28;20184;-76
2023/08/02 01:23:07;;;;;;;3.27;1.67;;;;;;;17.13;100.00;99237.59;5012444;28;20216;-75
2023/08/02 01:25:33;;;;;;;2.57;2.00;;;;;;;17.16;100.00;99240.03;5012932;28;20219;-75
2023/08/02 01:28:02;;;;;;;3.03;2.10;;;;;;;17.18;100.00;99242.56;5014136;28;20211;-75
2023/08/02 01:30:35;;;;;;;2.80;1.70;;;;;;;17.19;100.00;99232.03;5013809;28;20560;-76
2023/08/02 01:33:02;;;;;;;2.40;1.47;;;;;;;17.19;100.00;99229.44;5014187;28;20208;-75
2023/08/02 01:35:27;;;;;;;3.40;1.87;;;;;;;17.21;100.00;99224.09;5012088;28;20187;-76
2023/08/02 01:37:53;;;;;;;4.37;2.00;;;;;;;17.22;100.00;99210.09;5028331;28;20736;-75
2023/08/02 01:40:18;;;;;;;2.23;2.00;;;;;;;17.25;100.00;99214.31;5014023;28;20571;-76
2023/08/02 01:42:44;;;;;;;2.20;1.70;;;;;;;17.26;100.00;99209.03;5014344;28;20247;-75
2023/08/02 01:45:10;;;;;;;2.60;1.57;;;;;;;17.27;100.00;99208.09;5012127;28;20193;-76
2023/08/02 01:47:35;;;;;;;2.20;1.87;;;;;;;17.29;100.00;99205.38;5010809;28;20207;-75
2023/08/02 01:50:00;;;;;;;2.33;1.73;;;;;;;17.30;100.00;99194.00;5011742;28;20203;-76
2023/08/02 01:52:26;;;;;;;2.93;1.70;;;;;;;17.31;100.00;99186.09;5008552;28;20215;-75
2023/08/02 01:54:51;;;;;;;4.00;2.10;;;;;;;17.31;100.00;99188.72;5011367;28;20682;-76
2023/08/02 01:57:16;;;;;;;3.07;2.10;;;;;;;17.31;100.00;99177.38;5012661;28;20209;-75
2023/08/02 01:59:42;;;;;;;2.00;1.50;;;;;;;17.32;100.00;99173.84;5012252;28;20208;-75
2023/08/02 02:02:07;;;;;;;2.40;2.03;;;;;;;17.32;100.00;99173.84;5028086;28;20214;-75
2023/08/02 02:04:32;;;;;;;1.77;1.50;;;;;;;17.33;100.00;99178.16;5027359;28;20216;-75
2023/08/02 02:06:58;;;;;;;2.10;1.90;;;;;;;17.34;100.00;99177.22;5011221;28;20223;-75
2023/08/02 02:09:23;;;;;;;2.00;1.70;;;;;;;17.33;100.00;99176.38;5012315;28;20297;-75
2023/08/02 02:11:49;;;;;;;2.03;1.70;;;;;;;17.34;100.00;99164.97;5015574;28;20207;-75
2023/08/02 02:14:14;;;;;;;1.60;1.43;;;;;;;17.35;100.00;99165.84;5013001;28;20307;-74
2023/08/02 02:16:40;;;;;;;1.97;1.73;;;;;;;17.37;100.00;99161.38;5010085;28;20716;-76
2023/08/02 02:19:05;;;;;;;2.30;1.67;;;;;;;17.39;100.00;99162.13;5012399;28;20313;-75
2023/08/02 02:21:30;;;;;;;1.90;1.70;;;;;;;17.41;100.00;99148.97;5010934;28;20193;-75
2023/08/02 02:23:55;;;;;;;2.03;1.83;;;;;;;17.42;100.00;99140.19;5014225;28;20189;-75
2023/08/02 02:26:22;;;;;;;2.33;1.87;;;;;;;17.44;100.00;99154.03;5011928;28;20218;-74
2023/08/02 02:28:47;;;;;;;1.50;1.40;;;;;;;17.44;100.00;99144.41;5011434;28;20199;-75
2023/08/02 02:31:12;;;;;;;1.73;1.63;;;;;;;17.45;100.00;99140.03;5014550;28;20569;-75
2023/08/02 02:33:38;;;;;;;1.57;1.47;;;;;;;17.48;100.00;99142.44;5010781;28;20658;-76
2023/08/02 02:36:04;;;;;;;2.77;2.03;;;;;;;17.48;100.00;99130.22;5009251;28;20190;-75
2023/08/02 02:38:31;;;;;;;2.10;1.90;;;;;;;17.49;100.00;99128.44;5010668;28;20214;-75
2023/08/02 02:40:56;;;;;;;2.60;1.80;;;;;;;17.50;100.00;99135.34;5010401;28;20694;-75
2023/08/02 02:43:22;;;;;;;2.30;1.80;;;;;;;17.52;100.00;99133.50;5012800;28;20239;-75
2023/08/02 02:45:47;;;;;;;1.83;1.73;;;;;;;17.52;100.00;99123.03;5008451;28;20573;-76
2023/08/02 02:48:12;;;;;;;1.70;1.60;;;;;;;17.54;100.00;99118.56;5016332;28;20701;-76
2023/08/02 02:50:38;;;;;;;2.73;1.83;;;;;;;17.54;100.00;99110.72;5009365;28;20666;-76
2023/08/02 02:53:03;;;;;;;2.93;2.00;;;;;;;17.54;100.00;99108.09;5010665;28;20211;-76
2023/08/02 02:55:28;;;;;;;2.00;1.77;;;;;;;17.54;100.00;99104.66;5013799;28;20695;-75
2023/08/02 02:57:54;;;;;;;2.50;2.10;;;;;;;17.53;100.00;99098.56;5011367;28;20220;-76
2023/08/02 03:00:19;;;;;;;4.03;2.33;;;;;;;17.51;100.00;99096.06;5012562;28;20594;-75
2023/08/02 03:02:44;;;;;;;2.50;2.30;;;;;;;17.54;100.00;99094.19;5011078;28;20307;-75
2023/08/02 03:05:10;;;;;;;2.73;1.90;;;;;;;17.56;100.00;99097.53;5009533;28;20287;-75
2023/08/02 03:07:35;;;;;;;2.10;1.93;;;;;;;17.57;100.00;99091.38;5012402;28;20692;-75
2023/08/02 03:10:03;;;;;;;2.77;2.17;;;;;;;17.58;100.00;99099.16;5012862;28;20189;-75
2023/08/02 03:12:28;;;;;;;2.57;2.23;;;;;;;17.59;100.00;99103.47;5010428;28;20216;-75
2023/08/02 03:14:54;;;;;;;2.50;2.23;;;;;;;17.61;100.00;99105.97;5009819;28;21305;-76
2023/08/02 03:17:19;;;;;;;2.43;2.13;;;;;;;17.60;100.00;99096.44;5019821;28;20258;-75
2023/08/02 03:19:44;;;;;;;3.03;2.50;;;;;;;17.59;100.00;99097.38;5011223;28;20749;-75
2023/08/02 03:22:10;;;;;;;2.50;1.97;;;;;;;17.60;100.00;99096.44;5010799;28;20215;-76
2023/08/02 03:24:35;;;;;;;4.87;2.20;;;;;;;17.61;100.00;99090.28;5010971;28;20204;-75
2023/08/02 03:27:00;;;;;;;3.07;2.20;;;;;;;17.60;100.00;99086.84;5007942;28;20654;-76
2023/08/02 03:29:25;;;;;;;2.97;2.33;;;;;;;17.59;100.00;99087.78;5013122;28;20720;-77
2023/08/02 03:31:51;;;;;;;2.97;1.90;;;;;;;17.60;100.00;99079.00;5010128;28;20229;-76
2023/08/02 03:34:16;;;;;;;3.70;2.47;;;;;;;17.62;100.00;99068.44;5012557;28;20218;-76
2023/08/02 03:36:42;;;;;;;3.90;2.37;;;;;;;17.62;100.00;99066.63;5008788;28;20203;-75
2023/08/02 03:39:08;;;;;;;3.00;2.33;;;;;;;17.63;100.00;99057.03;5012181;28;20239;-76
2023/08/02 03:41:34;;;;;;;2.37;2.13;;;;;;;17.62;100.00;99052.72;5014296;28;20214;-76
2023/08/02 03:43:59;;;;;;;4.20;2.40;;;;;;;17.62;100.00;99057.97;5013315;28;21471;-76
2023/08/02 03:46:24;;;;;;;3.20;2.30;;;;;;;17.62;100.00;99053.56;5010439;28;20231;-76
2023/08/02 03:48:50;;;;;;;5.67;2.87;;;;;;;17.57;100.00;99050.38;5012493;28;20703;-76
2023/08/02 03:51:15;;;;;;;2.47;2.27;;;;;;;17.55;100.00;99044.41;5008603;28;20197;-76
2023/08/02 03:53:40;;;;;;;3.73;2.57;;;;;;;17.52;100.00;99055.03;5011321;28;20567;-77
2023/08/02 03:56:05;;;;;;;3.43;2.20;;;;;;;17.45;100.00;99038.84;5007833;28;20573;-76
2023/08/02 03:58:31;;;;;;;4.30;2.70;;;;;;;17.43;100.00;99045.94;5011458;28;20186;-76
2023/08/02 04:00:56;;;;;;;2.53;2.10;;;;;;;17.39;100.00;99041.84;5026009;28;20259;-76
2023/08/02 04:03:21;;;;;;;2.80;2.60;;;;;;;17.34;100.00;99036.84;5016948;28;20899;-76
2023/08/02 04:05:47;;;;;;;2.63;2.30;;;;;;;17.31;100.00;99034.44;5013935;28;20671;-77
2023/08/02 04:08:12;;;;;;;2.57;2.20;;;;;;;17.28;100.00;99026.75;5013423;28;20184;-75
2023/08/02 04:10:40;;;;;;;5.00;2.60;;;;;;;17.24;100.00;99017.41;5012686;28;20195;-75
2023/08/02 04:13:05;;;;;;;3.67;3.07;;;;;;;17.20;100.00;99003.66;5012635;28;20196;-75
2023/08/02 04:15:32;;;;;;;3.93;2.60;;;;;;;17.15;100.00;99012.69;5009647;28;20184;-75
2023/08/02 04:17:58;;;;;;;3.10;2.47;;;;;;;17.14;100.00;99011.00;5013110;28;20185;-77
2023/08/02 04:20:23;;;;;;;3.23;2.73;;;;;;;17.10;100.00;99004.25;5011988;28;20183;-76
2023/08/02 04:22:49;;;;;;;2.93;2.53;;;;;;;17.07;100.00;99002.69;5013828;28;20208;-76
2023/08/02 04:25:15;;;;;;;4.10;2.40;;;;;;;17.03;100.00;98990.69;5016872;28;20219;-75
2023/08/02 04:27:40;;;;;;;2.70;2.50;;;;;;;17.02;100.00;98984.63;5015680;28;20252;-75
2023/08/02 04:30:07;;;;;;;3.93;2.97;;;;;;;17.01;100.00;98980.34;5013460;28;20233;-77
2023/08/02 04:32:32;;;;;;;3.80;3.40;;;;;;;17.02;100.00;98973.34;5017287;28;20737;-77
2023/08/02 04:34:57;;;;;;;3.20;2.90;;;;;;;17.01;100.00;98964.66;5014537;28;20211;-76
2023/08/02 04:37:23;;;;;;;2.90;2.70;;;;;;;17.00;100.00;98968.22;5014607;28;20192;-76
2023/08/02 04:39:48;;;;;;;3.57;2.80;;;;;;;17.00;100.00;98959.50;5016526;28;20273;-75
2023/08/02 04:42:15;;;;;;;2.87;2.60;;;;;;;17.00;100.00;98959.50;5016586;28;20318;-76
2023/08/02 04:44:41;;;;;;;3.40;3.07;;;;;;;17.00;100.00;98951.66;5013601;28;20195;-76
2023/08/02 04:47:09;;;;;;;2.97;2.60;;;;;;;17.01;100.00;98955.97;5017019;28;20208;-76
2023/08/02 04:49:35;;;;;;;4.10;3.27;;;;;;;17.02;100.00;98955.03;5018450;28;20187;-76
2023/08/02 04:52:01;;;;;;;3.13;2.83;;;;;;;17.03;100.00;98956.72;5013797;28;20978;-76
2023/08/02 04:54:27;;;;;;;3.77;3.20;;;;;;;17.04;100.00;98947.97;5011250;28;20180;-76
2023/08/02 04:56:52;;;;;;;4.67;3.10;;;;;;;17.03;100.00;98952.31;5016420;28;20172;-76
2023/08/02 04:59:17;;;;;;;5.23;3.40;;;;;;;17.03;100.00;98948.88;5017068;28;20209;-77
2023/08/02 05:01:43;;;;;;;3.63;3.03;;;;;;;17.02;100.00;98948.03;5018336;28;20191;-77
2023/08/02 05:04:08;;;;;;;3.67;3.20;;;;;;;17.02;100.00;98944.59;5018657;28;20188;-76
2023/08/02 05:06:34;;;;;;;3.57;3.00;;;;;;;17.01;100.00;98940.28;5012898;28;20261;-76
2023/08/02 05:09:04;;;;;;;4.73;3.23;;;;;;;17.02;100.00;98950.63;5010818;28;20199;-76
2023/08/02 05:11:30;;;;;;;3.03;2.73;;;;;;;17.01;100.00;98948.13;5013229;28;20192;-76
2023/08/02 05:13:55;;;;;;;3.90;3.00;;;;;;;17.02;100.00;98947.19;5011416;28;20192;-75
2023/08/02 05:16:20;;;;;;;3.30;2.90;;;;;;;17.01;100.00;98950.75;5017639;28;20188;-76
2023/08/02 05:18:45;;;;;;;3.40;2.83;;;;;;;17.00;100.00;98955.16;5013585;28;20192;-77
2023/08/02 05:21:15;;;;;;;5.87;3.20;;;;;;;16.99;100.00;98958.69;5017534;28;20189;-77
2023/08/02 05:23:42;;;;;;;4.30;2.93;;;;;;;16.98;100.00;98949.16;5017729;28;20293;-78
2023/08/02 05:26:08;;;;;;;3.27;2.97;;;;;;;17.00;100.00;98942.06;5013797;28;20732;-76
2023/08/02 05:28:33;;;;;;;3.67;3.07;;;;;;;17.02;100.00;98928.91;5016806;28;20191;-76
2023/08/02 05:30:59;;;;;;;3.23;2.93;;;;;;;17.04;100.00;98933.09;5017196;28;20190;-77
2023/08/02 05:33:24;;;;;;;3.07;2.77;;;;;;;17.06;100.00;98933.03;5013671;28;20214;-77
2023/08/02 05:35:50;;;;;;;4.60;3.20;;;;;;;17.08;100.00;98931.19;5015280;28;20184;-77
2023/08/02 05:38:15;;;;;;;3.83;2.67;;;;;;;17.08;100.00;98915.50;5015179;28;20200;-77
2023/08/02 05:40:41;;;;;;;4.27;2.83;;;;;;;17.08;100.00;98920.72;5016251;28;20708;-77
2023/08/02 05:43:09;;;;;;;3.10;2.80;;;;;;;17.09;100.00;98918.94;5009271;28;20265;-77
2023/08/02 05:45:34;;;;;;;2.83;2.60;;;;;;;17.10;100.00;98920.63;5010469;28;20224;-77
2023/08/02 05:48:00;;;;;;;4.90;3.20;;;;;;;17.08;100.00;98909.41;5013673;28;20199;-78
2023/08/02 05:50:25;;;;;;;3.30;2.97;;;;;;;17.06;100.00;98909.50;5013482;28;20195;-77
2023/08/02 05:52:54;;;;;;;4.53;2.70;;;;;;;17.05;100.00;98898.19;5015701;28;20296;-77
2023/08/02 05:55:20;;;;;;;3.33;2.70;;;;;;;17.07;100.00;98895.53;5012865;28;20727;-76
2023/08/02 05:57:48;;;;;;;3.97;2.90;;;;;;;17.10;100.00;98897.94;5012438;28;20198;-77
2023/08/02 06:00:13;;;;;;;4.27;2.73;;;;;;;17.15;100.00;98893.28;5020246;28;20187;-77
2023/08/02 06:02:39;;;;;;;4.30;2.93;;;;;;;17.21;100.00;98886.84;5017457;28;20214;-78
2023/08/02 06:05:04;;;;;;;3.83;3.10;;;;;;;17.27;100.00;98885.63;5015427;28;20649;-77
2023/08/02 06:07:30;;;;;;;5.63;3.20;;;;;;;17.30;100.00;98873.25;5013309;28;20279;-77
2023/08/02 06:09:55;;;;;;;2.93;2.47;;;;;;;17.31;100.00;98874.06;5015606;28;20307;-76
2023/08/02 06:12:20;;;;;;;2.77;2.50;;;;;;;17.31;100.00;98864.47;5017788;28;20208;-76
2023/08/02 06:14:45;;;;;;;3.13;2.80;;;;;;;17.31;100.00;98866.22;5013670;28;20215;-77
2023/08/02 06:17:11;;;;;;;3.50;2.80;;;;;;;17.34;100.00;98858.22;5017395;28;20207;-77
2023/08/02 06:19:36;;;;;;;2.93;2.73;;;;;;;17.38;100.00;98849.25;5012859;28;20272;-77
2023/08/02 06:22:05;;;;;;;3.53;2.60;;;;;;;17.49;100.00;98846.81;5013490;28;20300;-76
2023/08/02 06:24:30;;;;;;;2.97;2.37;;;;;;;17.57;100.00;98840.28;5009062;28;20222;-77
2023/08/02 06:26:58;;;;;;;3.23;2.97;;;;;;;17.66;100.00;98843.16;5012946;28;20294;-77
2023/08/02 06:29:23;;;;;;;2.60;2.40;;;;;;;17.71;100.00;98842.06;5012035;28;20651;-77
2023/08/02 06:31:49;;;;;;;2.90;2.40;;;;;;;17.70;100.00;98835.97;5015685;28;20326;-76
2023/08/02 06:34:14;;;;;;;3.30;2.47;;;;;;;17.73;100.00;98832.34;5014753;28;20192;-77
2023/08/02 06:36:42;;;;;;;2.30;2.10;;;;;;;17.76;100.00;98834.78;5012714;28;20189;-76
2023/08/02 06:39:08;;;;;;;2.73;2.33;;;;;;;17.76;100.00;98832.16;5011940;28;20203;-76
2023/08/02 06:41:33;;;;;;;2.60;2.20;;;;;;;17.70;100.00;98824.66;5014693;28;20180;-77
2023/08/02 06:43:58;;;;;;;3.17;2.20;;;;;;;17.68;100.00;98830.84;5014369;28;20201;-77
2023/08/02 06:46:23;;;;;;;3.60;2.70;;;;;;;17.73;100.00;98817.47;5008928;28;20698;-76
2023/08/02 06:48:49;;;;;;;2.57;2.37;;;;;;;17.80;100.00;98813.53;5011836;28;20195;-77
2023/08/02 06:51:17;;;;;;;2.53;2.33;;;;;;;17.90;100.00;98805.97;5015067;28;20188;-77
2023/08/02 06:53:45;;;;;;;2.73;2.53;;;;;;;17.98;100.00;98808.94;5012953;28;20246;-77
2023/08/02 06:56:16;;;;;;;2.77;2.57;;;;;;;18.15;100.00;98801.78;5014373;28;20221;-76
2023/08/02 06:58:42;;;;;;;3.03;2.50;;;;;;;18.33;100.00;98788.47;5012755;28;20284;-77
2023/08/02 07:01:15;;;;;;;2.60;2.40;;;;;;;18.64;100.00;98779.41;5011979;28;20181;-76
2023/08/02 07:03:40;;;;;;;2.67;2.43;;;;;;;18.81;100.00;98780.91;5015540;28;20199;-77
2023/08/02 07:06:12;;;;;;;2.20;1.97;;;;;;;18.84;100.00;98780.69;5010892;28;20709;-77
2023/08/02 07:08:39;;;;;;;2.20;2.00;;;;;;;18.85;100.00;98787.59;5012572;28;20191;-77
2023/08/02 07:11:04;;;;;;;3.10;2.63;;;;;;;18.83;100.00;98780.78;5014779;28;20181;-77
2023/08/02 07:13:30;;;;;;;3.10;2.10;;;;;;;18.84;100.00;98772.81;5018410;28;20201;-76
2023/08/02 07:15:56;;;;;;;2.07;1.90;;;;;;;18.94;100.00;98778.31;5013823;28;20333;-76
2023/08/02 07:18:21;;;;;;;3.57;1.93;;;;;;;18.97;100.00;98762.38;5016436;28;20718;-77
2023/08/02 07:20:47;;;;;;;2.17;1.80;;;;;;;18.89;100.00;98768.13;5014862;28;20798;-77
2023/08/02 07:23:12;;;;;;;1.90;1.70;;;;;;;18.83;100.00;98758.03;5012385;28;20237;-77
2023/08/02 07:25:37;;;;;;;2.53;1.70;;;;;;;18.75;100.00;98760.34;5014228;28;20217;-76
2023/08/02 07:28:03;;;;;;;2.13;1.70;;;;;;;18.59;100.00;98756.13;5010518;28;20195;-78
2023/08/02 07:30:28;;;;;;;2.60;1.83;;;;;;;18.67;100.00;98753.00;5013176;28;20642;-77
2023/08/02 07:32:53;;;;;;;2.90;2.00;;;;;;;18.69;100.00;98742.41;5010110;28;20713;-77
2023/08/02 07:35:19;;;;;;;2.63;1.90;;;;;;;18.73;100.00;98738.66;5011748;28;20272;-77
2023/08/02 07:37:44;;;;;;;2.00;1.90;;;;;;;18.77;100.00;98728.78;5014452;28;20217;-77
2023/08/02 07:40:09;;;;;;;3.13;2.00;;;;;;;18.76;100.00;98727.09;5013185;28;20359;-77
2023/08/02 07:42:35;;;;;;;2.40;2.03;;;;;;;18.66;100.00;98719.88;5016034;28;20871;-77
2023/08/02 07:45:10;;;;;;;2.10;1.70;;;;;;;18.58;100.00;98715.16;5012514;28;20191;-77
2023/08/02 07:47:37;;;;;;;2.47;1.80;;;;;;;18.62;100.00;98710.53;5014924;28;20679;-77
2023/08/02 07:50:03;;;;;;;1.70;1.60;;;;;;;18.61;100.00;98701.00;5010001;28;20274;-76
2023/08/02 07:52:28;;;;;;;2.77;2.00;;;;;;;18.70;100.00;98697.78;5011363;28;20528;-76
2023/08/02 07:54:54;;;;;;;1.97;1.80;;;;;;;18.72;100.00;98684.56;5009882;28;20856;-77
2023/08/02 07:57:21;;;;;;;2.53;1.87;;;;;;;18.72;100.00;98687.19;5011597;28;20186;-77
2023/08/02 07:59:46;;;;;;;2.60;2.40;;;;;;;18.77;100.00;98681.63;5029782;28;20202;-77
2023/08/02 08:02:12;;;;;;;2.73;2.00;;;;;;;18.76;100.00;98682.56;5035726;28;20196;-77
2023/08/02 08:04:43;;;;;;;4.33;2.63;;;;;;;18.73;100.00;98686.25;5019674;28;20627;-77
2023/08/02 08:07:08;;;;;;;2.03;1.80;;;;;;;18.78;100.00;98675.44;5016205;28;20226;-77
2023/08/02 08:09:35;;;;;;;3.33;1.90;;;;;;;18.82;100.00;98683.00;5017511;28;20705;-76
2023/08/02 08:12:07;;;;;;;2.23;2.00;;;;;;;18.79;100.00;98677.97;5017362;28;20213;-76
2023/08/02 08:14:33;;;;;;;2.40;1.83;;;;;;;18.80;100.00;98689.28;5016335;28;21074;-76
2023/08/02 08:16:59;;;;;;;1.97;1.77;;;;;;;18.82;100.00;98688.25;5016336;28;20601;-76
2023/08/02 08:19:26;;;;;;;2.40;2.20;;;;;;;18.70;100.00;98682.06;5016927;28;20212;-77
2023/08/02 08:21:51;;;;;;;3.77;2.03;;;;;;;18.64;100.00;98686.88;5016738;28;22024;-77
2023/08/02 08:24:17;;;;;;;2.30;2.10;;;;;;;18.61;100.00;98687.91;5019033;28;20209;-76
2023/08/02 08:26:42;;;;;;;2.53;2.30;;;;;;;18.58;100.00;98682.91;5015183;28;20217;-77
2023/08/02 08:29:08;;;;;;;2.57;2.30;;;;;;;18.50;100.00;98672.94;5013551;28;20183;-76
2023/08/02 08:31:33;;;;;;;2.70;2.50;;;;;;;18.48;100.00;98669.56;5015458;28;20688;-76
2023/08/02 08:33:58;;;;;;;2.90;2.60;;;;;;;18.54;100.00;98658.66;5017917;28;20197;-77
2023/08/02 08:36:26;;;;;;;3.63;3.07;;;;;;;18.59;100.00;98666.25;5015685;28;20743;-77
2023/08/02 08:38:51;;;;;;;3.13;2.60;;;;;;;18.60;100.00;98665.28;5014662;28;20225;-77
2023/08/02 08:41:17;;;;;;;3.77;3.27;;;;;;;18.60;100.00;98654.81;5014504;28;20673;-77
2023/08/02 08:43:46;;;;;;;4.37;3.13;;;;;;;18.61;100.00;98653.03;5017055;28;20682;-78
2023/08/02 08:46:12;;;;;;;3.30;3.00;;;;;;;18.60;100.00;98633.84;5017509;28;20294;-76
2023/08/02 08:48:38;;;;;;;4.03;3.00;;;;;;;18.61;100.00;98634.69;5015765;28;20284;-77
2023/08/02 08:51:05;;;;;;;3.50;3.00;;;;;;;18.69;100.00;98635.84;5017112;28;20190;-77
2023/08/02 08:53:35;;;;;;;3.50;3.20;;;;;;;18.83;100.00;98626.16;5016052;28;20758;-77
2023/08/02 08:56:04;;;;;;;3.30;3.00;;;;;;;18.89;100.00;98631.00;5018619;28;20701;-77
2023/08/02 08:58:36;;;;;;;3.83;3.00;;;;;;;19.04;100.00;98611.59;5014952;28;20545;-78
2023/08/02 09:01:05;;;;;;;3.00;2.70;;;;;;;19.00;100.00;98618.00;5016410;28;20187;-77
2023/08/02 09:03:34;;;;;;;3.30;2.80;;;;;;;18.94;100.00;98626.28;5017527;28;20324;-76
2023/08/02 09:06:00;;;;;;;3.63;3.03;;;;;;;18.92;100.00;98616.81;5015658;28;20300;-77
2023/08/02 09:08:39;;;;;;;3.30;3.00;;;;;;;18.93;100.00;98614.09;5014746;28;20570;-78
2023/08/02 09:11:04;;;;;;;3.30;3.00;;;;;;;18.94;100.00;98609.69;5015260;28;20316;-77
2023/08/02 09:13:29;;;;;;;3.60;3.20;;;;;;;19.02;100.00;98610.00;5015971;28;20331;-77
2023/08/02 09:16:14;;;;;;;5.40;3.33;;;;;;;19.02;100.00;98605.63;5014483;28;20187;-77
2023/08/02 09:18:47;;;;;;;3.57;3.10;;;;;;;19.12;100.00;98611.06;5014804;28;20932;-76
2023/08/02 09:21:15;;;;;;;3.87;3.33;;;;;;;19.11;100.00;98609.38;5016779;28;20188;-77
2023/08/02 09:24:06;;;;;;;4.07;2.87;;;;;;;19.02;100.00;98607.38;5016728;28;20225;-77
2023/08/02 09:26:33;;;;;;;3.73;3.00;;;;;;;19.07;100.00;98599.19;5014274;28;20264;-76
2023/08/02 09:29:02;;;;;;;3.40;3.10;;;;;;;19.17;100.00;98616.78;5013360;28;20183;-78
2023/08/02 09:31:29;;;;;;;3.80;3.20;;;;;;;19.17;100.00;98605.47;5011385;28;20279;-77
2023/08/02 09:33:55;;;;;;;3.27;2.97;;;;;;;19.28;100.00;98618.63;5011570;28;20199;-77
2023/08/02 09:36:31;;;;;;;4.30;3.27;;;;;;;19.30;100.00;98605.41;5017832;28;20185;-78
2023/08/02 09:39:18;;;;;;;3.43;3.13;;;;;;;19.54;100.00;98609.84;5014525;28;20210;-77
2023/08/02 09:41:48;;;;;;;4.20;3.10;;;;;;;19.35;100.00;98605.91;5014411;28;20671;-77
2023/08/02 09:44:22;;;;;;;4.60;3.00;;;;;;;19.44;100.00;98613.09;5016675;28;20283;-77
2023/08/02 09:46:48;;;;;;;5.07;2.83;;;;;;;19.47;100.00;98599.78;5011641;28;21142;-77
2023/08/02 09:49:18;;;;;;;4.17;3.10;;;;;;;19.31;100.00;98597.44;5012542;28;20192;-78
2023/08/02 09:51:44;;;;;;;3.70;3.30;;;;;;;19.27;100.00;98600.41;5017054;28;20237;-77
2023/08/02 09:54:11;;;;;;;3.00;2.67;;;;;;;19.30;100.00;98585.28;5013685;28;20191;-78
2023/08/02 09:56:41;;;;;;;2.70;2.50;;;;;;;19.44;100.00;98583.44;5010750;28;20195;-79
2023/08/02 09:59:08;;;;;;;4.93;2.80;;;;;;;19.53;100.00;98580.13;5018179;28;20202;-77
2023/08/02 10:01:35;;;;;;;3.87;2.90;;;;;;;19.60;100.00;98585.75;5041428;28;20206;-77
2023/08/02 10:04:08;;;;;;;3.63;2.63;;;;;;;19.48;100.00;98585.72;5022128;28;20196;-77
2023/08/02 10:06:47;;;;;;;2.97;2.60;;;;;;;19.30;100.00;98577.41;5017823;28;20222;-78
2023/08/02 10:09:23;;;;;;;4.83;2.80;;;;;;;19.27;100.00;98580.25;5017636;28;20182;-77
2023/08/02 10:12:04;;;;;;;3.13;2.70;;;;;;;19.17;100.00;98580.06;5016658;28;20216;-77
2023/08/02 10:14:30;;;;;;;4.27;2.73;;;;;;;19.08;100.00;98574.66;5016823;28;20199;-77
2023/08/02 10:17:00;;;;;;;2.80;2.60;;;;;;;19.12;100.00;98570.88;5016061;28;20256;-78
2023/08/02 10:19:26;;;;;;;3.43;3.13;;;;;;;19.08;100.00;98570.25;5017020;28;20195;-77
2023/08/02 10:21:52;;;;;;;2.87;2.60;;;;;;;19.06;100.00;98556.41;5015666;28;20324;-77
2023/08/02 10:24:18;;;;;;;4.00;3.20;;;;;;;19.05;100.00;98549.50;5015742;28;20253;-77
2023/08/02 10:26:44;;;;;;;3.63;3.33;;;;;;;19.04;100.00;98545.19;5014806;28;20207;-77
2023/08/02 10:29:10;;;;;;;3.20;2.90;;;;;;;19.04;100.00;98543.44;5017942;28;20183;-76
2023/08/02 10:31:36;;;;;;;3.50;3.10;;;;;;;19.18;100.00;98537.16;5015290;28;20912;-78
2023/08/02 10:34:36;;;;;;;2.83;2.63;;;;;;;19.31;100.00;98531.88;5013262;28;20238;-77
2023/08/02 10:37:05;;;;;;;2.93;2.60;;;;;;;19.49;100.00;98524.44;5015331;28;20278;-77
2023/08/02 10:39:45;;;;;;;3.20;2.90;;;;;;;19.67;100.00;98517.91;5016707;28;21189;-77
2023/08/02 10:42:14;;;;;;;3.00;2.80;;;;;;;19.64;100.00;98513.72;5017032;28;20656;-78
2023/08/02 10:44:55;;;;;;;3.37;2.90;;;;;;;19.63;100.00;98504.19;5013877;28;20185;-76
2023/08/02 10:47:30;;;;;;;5.60;3.40;;;;;;;19.71;100.00;98507.09;5015912;28;20202;-78
2023/08/02 10:49:57;;;;;;;3.73;3.10;;;;;;;19.72;100.00;98505.28;5016761;28;20267;-78
2023/08/02 10:52:29;;;;;;;3.70;3.40;;;;;;;19.85;100.00;98490.28;5017582;28;20325;-77
2023/08/02 10:55:15;;;;;;;4.57;4.07;;;;;;;19.76;100.00;98491.81;5015124;28;20214;-78
2023/08/02 10:58:05;;;;;;;4.20;3.80;;;;;;;19.90;100.00;98484.69;5012743;28;20636;-76
2023/08/02 11:00:32;;;;;;;4.67;4.00;;;;;;;20.05;100.00;98493.19;5013772;28;20205;-77
2023/08/02 11:02:58;;;;;;;4.23;3.77;;;;;;;19.98;100.00;98478.84;5013574;28;20207;-77
2023/08/02 11:05:46;;;;;;;5.17;3.80;;;;;;;19.97;100.00;98485.06;5017550;28;20194;-77
2023/08/02 11:08:12;;;;;;;5.70;4.20;;;;;;;20.08;100.00;98485.91;5014157;28;20175;-77
2023/08/02 11:10:54;;;;;;;5.47;4.37;;;;;;;20.13;100.00;98485.53;5015105;28;20207;-77
2023/08/02 11:13:21;;;;;;;4.47;4.03;;;;;;;20.18;100.00;98498.34;5017360;28;20857;-77
2023/08/02 11:15:46;;;;;;;6.93;4.60;;;;;;;20.25;100.00;98491.66;5013607;28;20188;-77
2023/08/02 11:18:12;;;;;;;4.83;4.43;;;;;;;20.21;100.00;98488.44;5015418;28;20188;-77
2023/08/02 11:20:38;;;;;;;4.73;4.33;;;;;;;20.32;100.00;98490.22;5015349;28;20286;-77
2023/08/02 11:23:25;;;;;;;4.77;4.33;;;;;;;20.38;100.00;98491.53;5013987;28;20624;-78
2023/08/02 11:26:07;;;;;;;5.90;5.20;;;;;;;20.42;100.00;98474.53;5013021;28;20744;-77